createdAt,value
2023-04-26T00:00:09.520Z,101939.28
2023-04-26T00:02:37.497Z,101941.16
2023-04-26T00:05:06.236Z,101937.66
2023-04-26T00:07:35.621Z,101940.31
2023-04-26T00:10:03.820Z,101943.16
2023-04-26T00:12:31.722Z,101945.00
2023-04-26T00:14:59.508Z,101935.25
2023-04-26T00:17:27.368Z,101933.75
2023-04-26T00:19:57.644Z,101946.16
2023-04-26T00:22:26.105Z,101947.44
2023-04-26T00:24:55.215Z,101944.13
2023-04-26T00:27:23.077Z,101914.53
2023-04-26T00:29:50.910Z,101940.81
2023-04-26T00:32:18.846Z,101941.66
2023-04-26T00:34:46.631Z,101947.94
2023-04-26T00:37:14.461Z,101942.84
2023-04-26T00:39:42.319Z,101943.66
2023-04-26T00:42:12.146Z,101923.88
2023-04-26T00:44:40.614Z,101946.53
2023-04-26T00:47:08.432Z,101943.88
2023-04-26T00:49:36.428Z,101919.66
2023-04-26T00:52:04.187Z,101942.31
2023-04-26T00:54:32.154Z,101942.56
2023-04-26T00:57:00.617Z,101922.28
2023-04-26T00:59:29.954Z,101942.56
2023-04-26T01:01:58.009Z,101933.84
2023-04-26T01:04:27.591Z,101928.59
2023-04-26T01:06:56.293Z,101932.19
2023-04-26T01:09:24.319Z,101928.78
2023-04-26T01:11:54.234Z,101919.44
2023-04-26T01:14:23.020Z,101946.09
2023-04-26T01:16:52.560Z,101932.09
2023-04-26T01:19:21.442Z,101934.78
2023-04-26T01:21:49.319Z,101934.78
2023-04-26T01:24:18.530Z,101942.97
2023-04-26T01:26:46.534Z,101943.19
2023-04-26T01:29:15.845Z,101947.63
2023-04-26T01:31:43.979Z,101938.13
2023-04-26T01:34:12.014Z,101944.25
2023-04-26T01:36:39.878Z,101942.69
2023-04-26T01:39:09.170Z,101943.72
2023-04-26T01:41:39.436Z,101929.78
2023-04-26T01:44:07.342Z,101944.84
2023-04-26T01:46:35.208Z,101947.56
2023-04-26T01:49:03.279Z,101946.84
2023-04-26T01:51:31.322Z,101926.56
2023-04-26T01:53:59.153Z,101936.34
2023-04-26T01:56:26.986Z,101939.91
2023-04-26T01:58:57.481Z,101922.41
2023-04-26T02:01:25.586Z,101941.88
2023-04-26T02:03:53.864Z,101925.38
2023-04-26T02:06:22.351Z,101937.59
2023-04-26T02:08:50.540Z,101939.47
2023-04-26T02:11:18.392Z,101943.91
2023-04-26T02:13:46.150Z,101943.09
2023-04-26T02:16:16.580Z,101947.69
2023-04-26T02:18:44.890Z,101943.31
2023-04-26T02:21:13.014Z,101944.44
2023-04-26T02:23:40.861Z,101935.50
2023-04-26T02:26:08.645Z,101943.63
2023-04-26T02:28:36.903Z,101926.94
2023-04-26T02:31:04.957Z,101920.75
2023-04-26T02:33:34.348Z,101944.53
2023-04-26T02:36:04.188Z,101941.03
2023-04-26T02:38:31.933Z,101947.13
2023-04-26T02:41:00.467Z,101939.13
2023-04-26T02:43:28.684Z,101937.22
2023-04-26T02:45:58.744Z,101931.00
2023-04-26T02:48:26.578Z,101937.22
2023-04-26T02:50:57.101Z,101927.34
2023-04-26T02:53:25.085Z,101933.59
2023-04-26T02:55:52.836Z,101921.25
2023-04-26T02:58:21.484Z,101923.00
2023-04-26T03:00:49.357Z,101926.63
2023-04-26T03:03:17.398Z,101888.06
2023-04-26T03:05:46.178Z,101926.47
2023-04-26T03:08:15.773Z,101922.84
2023-04-26T03:10:45.203Z,101926.41
2023-04-26T03:13:13.024Z,101921.91
2023-04-26T03:15:40.770Z,101921.09
2023-04-26T03:18:08.596Z,101921.09
2023-04-26T03:20:36.411Z,101924.59
2023-04-26T03:23:04.436Z,101914.13
2023-04-26T03:25:34.239Z,101922.78
2023-04-26T03:28:02.036Z,101922.69
2023-04-26T03:30:29.946Z,101920.00
2023-04-26T03:32:58.017Z,101918.25
2023-04-26T03:35:25.877Z,101922.84
2023-04-26T03:37:54.437Z,101917.63
2023-04-26T03:40:23.169Z,101912.16
2023-04-26T03:42:52.622Z,101912.06
2023-04-26T03:45:20.698Z,101910.59
2023-04-26T03:47:48.540Z,101907.72
2023-04-26T03:50:16.501Z,101914.84
2023-04-26T03:52:44.211Z,101918.34
2023-04-26T03:55:12.027Z,101907.59
2023-04-26T03:57:39.810Z,101899.56
2023-04-26T04:00:13.509Z,101890.16
2023-04-26T04:02:42.561Z,101897.13
2023-04-26T04:05:11.252Z,101903.47
2023-04-26T04:07:39.222Z,101899.16
2023-04-26T04:10:08.010Z,101898.38
2023-04-26T04:12:35.865Z,101901.00
2023-04-26T04:15:03.926Z,101909.06
2023-04-26T04:17:33.451Z,101910.88
2023-04-26T04:20:05.109Z,101889.69
2023-04-26T04:22:32.913Z,101896.75
2023-04-26T04:25:00.692Z,101907.16
2023-04-26T04:27:28.609Z,101909.91
2023-04-26T04:29:56.521Z,101913.50
2023-04-26T04:32:24.877Z,101899.41
2023-04-26T04:34:54.301Z,101924.31
2023-04-26T04:37:22.962Z,101927.56
2023-04-26T04:39:50.823Z,101928.38
2023-04-26T04:42:18.955Z,101928.28
2023-04-26T04:44:47.151Z,101908.75
2023-04-26T04:47:15.359Z,101917.25
2023-04-26T04:49:43.331Z,101918.19
2023-04-26T04:52:12.517Z,101921.75
2023-04-26T04:54:40.962Z,101919.94
2023-04-26T04:57:09.342Z,101913.81
2023-04-26T04:59:37.272Z,101922.41
2023-04-26T05:02:05.236Z,101918.75
2023-04-26T05:04:34.568Z,101920.56
2023-04-26T05:07:02.722Z,101920.50
2023-04-26T05:09:32.228Z,101921.19
2023-04-26T05:12:00.045Z,101923.84
2023-04-26T05:14:28.055Z,101925.50
2023-04-26T05:16:55.854Z,101919.09
2023-04-26T05:19:23.738Z,101926.13
2023-04-26T05:21:51.553Z,101921.69
2023-04-26T05:24:19.518Z,101928.69
2023-04-26T05:26:48.699Z,101924.03
2023-04-26T05:29:16.683Z,101921.34
2023-04-26T05:31:45.034Z,101921.16
2023-04-26T05:34:13.013Z,101924.50
2023-04-26T05:36:41.066Z,101925.13
2023-04-26T05:39:11.612Z,101930.28
2023-04-26T05:41:39.467Z,101920.63
2023-04-26T05:44:08.665Z,101933.38
2023-04-26T05:46:36.482Z,101927.94
2023-04-26T05:49:04.212Z,101933.75
2023-04-26T05:51:31.954Z,101941.47
2023-04-26T05:54:00.152Z,101945.63
2023-04-26T05:56:27.979Z,101945.25
2023-04-26T05:58:55.964Z,101939.38
2023-04-26T06:01:25.290Z,101940.63
2023-04-26T06:03:55.819Z,101941.88
2023-04-26T06:06:26.723Z,101944.09
2023-04-26T06:08:54.599Z,101947.06
2023-04-26T06:11:22.658Z,101936.34
2023-04-26T06:13:50.761Z,101954.47
2023-04-26T06:16:19.349Z,101955.06
2023-04-26T06:18:48.543Z,101959.88
2023-04-26T06:21:16.357Z,101963.19
2023-04-26T06:23:44.126Z,101976.94
2023-04-26T06:26:11.906Z,101973.81
2023-04-26T06:28:40.509Z,101962.94
2023-04-26T06:31:09.992Z,101972.13
2023-04-26T06:33:38.255Z,101971.06
2023-04-26T06:36:12.166Z,101987.75
2023-04-26T06:38:39.967Z,101971.56
2023-04-26T06:41:08.535Z,101976.19
2023-04-26T06:43:38.762Z,101980.09
2023-04-26T06:46:06.983Z,101984.16
2023-04-26T06:48:34.861Z,101983.81
2023-04-26T06:51:08.773Z,101970.31
2023-04-26T06:53:36.925Z,101954.88
2023-04-26T06:56:05.160Z,101972.78
2023-04-26T06:58:32.970Z,101959.78
2023-04-26T07:01:01.282Z,101969.25
2023-04-26T07:03:29.543Z,101968.78
2023-04-26T07:05:57.532Z,101972.69
2023-04-26T07:08:26.738Z,101960.69
2023-04-26T07:10:56.727Z,101967.00
2023-04-26T07:13:24.635Z,101953.28
2023-04-26T07:15:52.514Z,101957.94
2023-04-26T07:18:20.533Z,101953.59
2023-04-26T07:20:48.296Z,101944.13
2023-04-26T07:23:16.076Z,101962.28
2023-04-26T07:25:45.823Z,101955.91
2023-04-26T07:28:15.855Z,101968.19
2023-04-26T07:30:43.626Z,101963.63
2023-04-26T07:33:11.636Z,101958.50
2023-04-26T07:35:39.578Z,101960.59
2023-04-26T07:38:07.549Z,101959.81
2023-04-26T07:40:36.628Z,101969.06
2023-04-26T07:43:06.116Z,101963.63
2023-04-26T07:45:34.239Z,101975.56
2023-04-26T07:48:02.258Z,101978.63
2023-04-26T07:50:30.653Z,101950.13
2023-04-26T07:52:58.630Z,101968.75
2023-04-26T07:55:26.598Z,101984.78
2023-04-26T07:57:57.410Z,101966.41
2023-04-26T08:00:28.985Z,101975.97
2023-04-26T08:02:56.985Z,101975.25
2023-04-26T08:05:25.105Z,101990.72
2023-04-26T08:07:53.387Z,101976.75
2023-04-26T08:10:21.299Z,101983.81
2023-04-26T08:12:49.252Z,101956.88
2023-04-26T08:15:17.160Z,101981.16
2023-04-26T08:17:47.214Z,101982.06
2023-04-26T08:20:15.199Z,101980.94
2023-04-26T08:22:43.110Z,101976.72
2023-04-26T08:25:11.604Z,101983.94
2023-04-26T08:27:39.949Z,101968.56
2023-04-26T08:30:09.221Z,101986.28
2023-04-26T08:32:37.067Z,101988.41
2023-04-26T08:35:07.100Z,101978.31
2023-04-26T08:37:36.062Z,101993.00
2023-04-26T08:40:04.676Z,101982.91
2023-04-26T08:42:33.031Z,101985.25
2023-04-26T08:45:03.410Z,101989.22
2023-04-26T08:47:39.661Z,101980.59
2023-04-26T08:50:12.136Z,101984.38
2023-04-26T08:52:43.127Z,101977.41
2023-04-26T08:55:12.780Z,101975.63
2023-04-26T08:57:41.605Z,101973.88
2023-04-26T09:00:12.563Z,101959.13
2023-04-26T09:02:42.971Z,101980.06
2023-04-26T09:05:13.036Z,101978.69
2023-04-26T09:07:48.167Z,101980.25
2023-04-26T09:10:21.103Z,101973.09
2023-04-26T09:12:52.963Z,101978.75
2023-04-26T09:15:24.353Z,101985.56
2023-04-26T09:17:52.835Z,101989.59
2023-04-26T09:20:24.480Z,101991.44
2023-04-26T09:22:54.025Z,101994.78
2023-04-26T09:25:30.225Z,101992.31
2023-04-26T09:27:58.627Z,101993.56
2023-04-26T09:30:28.530Z,101987.28
2023-04-26T09:32:58.270Z,101984.06
2023-04-26T09:35:30.956Z,101991.88
2023-04-26T09:38:07.872Z,101986.56
2023-04-26T09:40:41.032Z,101985.91
2023-04-26T09:43:11.802Z,101970.09
2023-04-26T09:45:46.791Z,101976.09
2023-04-26T09:48:22.517Z,101973.63
2023-04-26T09:50:53.506Z,101972.31
2023-04-26T09:53:29.491Z,101972.97
2023-04-26T09:55:58.500Z,101979.16
2023-04-26T09:58:26.836Z,101963.44
2023-04-26T10:00:55.807Z,101976.75
2023-04-26T10:03:25.556Z,101977.19
2023-04-26T10:05:56.018Z,101965.03
2023-04-26T10:08:24.548Z,101974.78
2023-04-26T10:10:52.971Z,101969.06
2023-04-26T10:13:20.967Z,101972.78
2023-04-26T10:15:51.986Z,101973.97
2023-04-26T10:18:20.399Z,101969.25
2023-04-26T10:20:53.821Z,101958.59
2023-04-26T10:23:25.870Z,101957.50
2023-04-26T10:25:56.868Z,101971.47
2023-04-26T10:29:02.736Z,101976.09
2023-04-26T10:32:05.621Z,101971.97
2023-04-26T10:34:35.100Z,101967.13
2023-04-26T10:37:12.277Z,101979.59
2023-04-26T10:39:43.175Z,101982.50
2023-04-26T10:42:25.943Z,101977.84
2023-04-26T10:44:55.572Z,101985.47
2023-04-26T10:47:32.587Z,101966.25
2023-04-26T10:50:06.360Z,101975.56
2023-04-26T10:52:35.048Z,101968.19
2023-04-26T10:55:06.483Z,101964.13
2023-04-26T10:57:54.086Z,101970.94
2023-04-26T11:00:32.395Z,101964.88
2023-04-26T11:03:07.087Z,101959.44
2023-04-26T11:05:55.717Z,101957.75
2023-04-26T11:08:28.975Z,101927.31
2023-04-26T11:11:12.006Z,101955.53
2023-04-26T11:13:42.556Z,101953.66
2023-04-26T11:16:13.047Z,101950.69
2023-04-26T11:18:43.095Z,101958.63
2023-04-26T11:21:12.956Z,101950.06
2023-04-26T11:23:42.764Z,101943.91
2023-04-26T11:26:12.059Z,101955.28
2023-04-26T11:28:41.833Z,101951.47
2023-04-26T11:31:09.709Z,101948.94
2023-04-26T11:33:38.245Z,101951.47
2023-04-26T11:36:06.792Z,101947.91
2023-04-26T11:38:35.106Z,101942.09
2023-04-26T11:41:04.652Z,101931.72
2023-04-26T11:43:37.866Z,101930.94
2023-04-26T11:46:07.236Z,101936.56
2023-04-26T11:48:36.671Z,101937.28
2023-04-26T11:51:05.961Z,101919.63
2023-04-26T11:53:38.358Z,101930.78
2023-04-26T11:56:14.438Z,101932.63
2023-04-26T11:58:45.740Z,101927.19
2023-04-26T12:01:13.697Z,101933.59
2023-04-26T12:03:41.868Z,101917.97
2023-04-26T12:06:10.024Z,101921.75
2023-04-26T12:08:38.069Z,101926.34
2023-04-26T12:11:06.300Z,101933.28
2023-04-26T12:13:34.131Z,101931.28
2023-04-26T12:16:22.450Z,101928.66
2023-04-26T12:18:54.521Z,101929.41
2023-04-26T12:21:22.644Z,101934.94
2023-04-26T12:23:50.968Z,101930.28
2023-04-26T12:26:20.646Z,101934.09
2023-04-26T12:28:49.072Z,101927.16
2023-04-26T12:31:20.920Z,101920.50
2023-04-26T12:33:48.876Z,101925.56
2023-04-26T12:36:16.642Z,101931.72
2023-04-26T12:38:44.437Z,101929.59
2023-04-26T12:41:12.202Z,101934.81
2023-04-26T12:43:40.484Z,101926.50
2023-04-26T12:46:08.638Z,101941.16
2023-04-26T12:48:38.044Z,101936.69
2023-04-26T12:51:06.890Z,101934.81
2023-04-26T12:53:35.120Z,101938.06
2023-04-26T12:56:03.132Z,101931.47
2023-04-26T12:58:30.937Z,101936.94
2023-04-26T13:00:58.793Z,101931.53
2023-04-26T13:03:27.108Z,101933.75
2023-04-26T13:05:56.726Z,101931.59
2023-04-26T13:08:24.850Z,101935.84
2023-04-26T13:10:52.776Z,101933.59
2023-04-26T13:13:26.154Z,101936.69
2023-04-26T13:15:58.157Z,101939.41
2023-04-26T13:18:26.646Z,101935.56
2023-04-26T13:20:55.907Z,101941.50
2023-04-26T13:23:23.689Z,101935.22
2023-04-26T13:25:51.685Z,101949.81
2023-04-26T13:28:19.465Z,101948.72
2023-04-26T13:30:47.300Z,101946.47
2023-04-26T13:33:15.141Z,101943.38
2023-04-26T13:35:43.060Z,101940.59
2023-04-26T13:38:13.224Z,101934.91
2023-04-26T13:40:41.606Z,101937.34
2023-04-26T13:43:09.833Z,101940.06
2023-04-26T13:45:37.717Z,101940.28
2023-04-26T13:48:05.912Z,101945.34
2023-04-26T13:50:33.845Z,101938.47
2023-04-26T13:53:01.759Z,101940.34
2023-04-26T13:55:31.165Z,101941.47
2023-04-26T13:57:59.262Z,101936.16
2023-04-26T14:00:27.254Z,101931.94
2023-04-26T14:02:56.454Z,101933.44
2023-04-26T14:05:24.660Z,101939.50
2023-04-26T14:07:54.814Z,101930.19
2023-04-26T14:10:22.928Z,101921.75
2023-04-26T14:12:52.129Z,101923.31
2023-04-26T14:15:19.963Z,101936.41
2023-04-26T14:17:47.918Z,101928.75
2023-04-26T14:20:15.894Z,101922.94
2023-04-26T14:22:43.912Z,101931.81
2023-04-26T14:25:11.748Z,101926.66
2023-04-26T14:27:39.612Z,101934.19
2023-04-26T14:30:09.902Z,101934.63
2023-04-26T14:32:37.681Z,101931.56
2023-04-26T14:35:06.328Z,101924.63
2023-04-26T14:37:34.128Z,101920.47
2023-04-26T14:40:02.030Z,101921.50
2023-04-26T14:42:29.997Z,101922.28
2023-04-26T14:44:59.884Z,101930.22
2023-04-26T14:47:29.438Z,101927.16
2023-04-26T14:49:58.142Z,101922.97
2023-04-26T14:52:28.960Z,101916.75
2023-04-26T14:54:57.325Z,101923.31
2023-04-26T14:57:28.276Z,101921.41
2023-04-26T14:59:56.142Z,101932.19
2023-04-26T15:02:24.041Z,101922.53
2023-04-26T15:04:53.311Z,101921.84
2023-04-26T15:07:31.216Z,101919.22
2023-04-26T15:10:00.258Z,101917.84
2023-04-26T15:12:28.108Z,101921.16
2023-04-26T15:14:56.192Z,101924.41
2023-04-26T15:17:24.031Z,101911.53
2023-04-26T15:19:53.206Z,101921.09
2023-04-26T15:22:23.710Z,101904.00
2023-04-26T15:24:51.838Z,101915.28
2023-04-26T15:27:19.699Z,101911.56
2023-04-26T15:29:47.497Z,101912.78
2023-04-26T15:32:15.296Z,101915.50
2023-04-26T15:34:45.148Z,101912.94
2023-04-26T15:37:14.360Z,101916.16
2023-04-26T15:39:42.267Z,101913.91
2023-04-26T15:42:10.222Z,101916.25
2023-04-26T15:44:38.029Z,101909.94
2023-04-26T15:47:06.200Z,101912.59
2023-04-26T15:49:34.069Z,101908.63
2023-04-26T15:52:01.899Z,101915.31
2023-04-26T15:54:31.081Z,101916.78
2023-04-26T15:56:59.304Z,101918.75
2023-04-26T15:59:27.410Z,101915.06
2023-04-26T16:01:55.272Z,101917.75
2023-04-26T16:04:23.256Z,101921.50
2023-04-26T16:06:51.532Z,101921.25
2023-04-26T16:09:25.317Z,101922.72
2023-04-26T16:11:55.008Z,101925.94
2023-04-26T16:14:23.065Z,101923.56
2023-04-26T16:16:50.971Z,101925.94
2023-04-26T16:19:18.790Z,101924.31
2023-04-26T16:21:47.108Z,101924.69
2023-04-26T16:24:14.949Z,101923.00
2023-04-26T16:26:48.426Z,101918.25
2023-04-26T16:29:17.756Z,101912.47
2023-04-26T16:31:45.731Z,101921.00
2023-04-26T16:34:13.719Z,101924.72
2023-04-26T16:36:41.743Z,101916.78
2023-04-26T16:39:09.478Z,101920.88
2023-04-26T16:41:37.316Z,101911.97
2023-04-26T16:44:05.200Z,101917.00
2023-04-26T16:46:34.517Z,101915.53
2023-04-26T16:49:03.229Z,101916.78
2023-04-26T16:51:31.960Z,101915.81
2023-04-26T16:53:59.755Z,101923.56
2023-04-26T16:56:27.609Z,101925.94
2023-04-26T16:58:55.734Z,101924.53
2023-04-26T17:01:23.569Z,101929.00
2023-04-26T17:03:53.235Z,101929.16
2023-04-26T17:06:21.208Z,101939.75
2023-04-26T17:08:49.701Z,101935.53
2023-04-26T17:11:17.963Z,101934.03
2023-04-26T17:13:45.893Z,101940.63
2023-04-26T17:16:13.796Z,101945.44
2023-04-26T17:18:41.928Z,101931.69
2023-04-26T17:21:11.238Z,101932.16
2023-04-26T17:23:39.112Z,101947.31
2023-04-26T17:26:06.980Z,101937.78
2023-04-26T17:28:34.911Z,101932.16
2023-04-26T17:31:03.745Z,101941.47
2023-04-26T17:33:31.871Z,101942.00
2023-04-26T17:36:02.843Z,101949.75
2023-04-26T17:38:33.283Z,101950.59
2023-04-26T17:41:01.091Z,101944.81
2023-04-26T17:43:28.892Z,101947.63
2023-04-26T17:45:56.886Z,101947.94
2023-04-26T17:48:24.647Z,101945.78
2023-04-26T17:50:52.945Z,101960.72
2023-04-26T17:53:21.508Z,101961.38
2023-04-26T17:55:53.035Z,101958.91
2023-04-26T17:58:20.848Z,101960.78
2023-04-26T18:00:50.080Z,101964.28
2023-04-26T18:03:20.277Z,101963.75
2023-04-26T18:05:50.165Z,101967.22
2023-04-26T18:08:21.487Z,101974.72
2023-04-26T18:10:53.906Z,101970.78
2023-04-26T18:13:22.105Z,101967.34
2023-04-26T18:15:51.225Z,101973.63
2023-04-26T18:18:19.021Z,101971.00
2023-04-26T18:20:49.202Z,101969.38
2023-04-26T18:23:17.546Z,101960.59
2023-04-26T18:25:45.433Z,101972.19
2023-04-26T18:28:14.742Z,101974.81
2023-04-26T18:30:45.464Z,101984.31
2023-04-26T18:33:13.444Z,101979.00
2023-04-26T18:35:41.612Z,101981.41
2023-04-26T18:38:09.484Z,101977.00
2023-04-26T18:40:44.048Z,101978.59
2023-04-26T18:43:11.963Z,101979.34
2023-04-26T18:45:41.557Z,101979.69
2023-04-26T18:48:09.708Z,101979.50
2023-04-26T18:50:37.582Z,101983.72
2023-04-26T18:53:07.914Z,101981.72
2023-04-26T18:55:35.676Z,101980.88
2023-04-26T18:58:03.539Z,101981.84
2023-04-26T19:00:32.427Z,101984.13
2023-04-26T19:03:01.695Z,101985.34
2023-04-26T19:05:29.745Z,101992.81
2023-04-26T19:07:57.654Z,101993.59
2023-04-26T19:10:25.721Z,101997.28
2023-04-26T19:12:53.705Z,101992.09
2023-04-26T19:15:21.536Z,101994.91
2023-04-26T19:17:50.643Z,101997.06
2023-04-26T19:20:20.410Z,101999.91
2023-04-26T19:22:48.432Z,102009.22
2023-04-26T19:25:20.355Z,101983.91
2023-04-26T19:27:48.148Z,102018.13
2023-04-26T19:30:16.304Z,102010.94
2023-04-26T19:32:44.242Z,102025.47
2023-04-26T19:35:12.199Z,102024.59
2023-04-26T19:37:43.789Z,102021.88
2023-04-26T19:40:12.228Z,102021.81
2023-04-26T19:42:40.135Z,102023.31
2023-04-26T19:45:09.000Z,102017.66
2023-04-26T19:47:36.875Z,102021.38
2023-04-26T19:50:05.147Z,102028.94
2023-04-26T19:52:32.950Z,102012.78
2023-04-26T19:55:02.132Z,102025.66
2023-04-26T19:57:30.143Z,102017.97
2023-04-26T19:59:57.912Z,102015.25
2023-04-26T20:02:25.743Z,102012.84
2023-04-26T20:04:53.800Z,102016.13
2023-04-26T20:07:21.747Z,102023.19
2023-04-26T20:09:49.637Z,102010.25
2023-04-26T20:12:19.031Z,102021.88
2023-04-26T20:14:47.194Z,102017.94
2023-04-26T20:17:15.471Z,102018.19
2023-04-26T20:19:43.793Z,102029.44
2023-04-26T20:22:11.909Z,102029.97
2023-04-26T20:24:39.736Z,102028.84
2023-04-26T20:27:07.496Z,102031.53
2023-04-26T20:29:37.429Z,102026.31
2023-04-26T20:32:05.677Z,102020.44
2023-04-26T20:34:33.685Z,102020.06
2023-04-26T20:37:01.440Z,102020.66
2023-04-26T20:39:30.043Z,102036.72
2023-04-26T20:41:57.902Z,102015.94
2023-04-26T20:44:25.717Z,102034.00
2023-04-26T20:46:54.947Z,102031.31
2023-04-26T20:49:22.777Z,102035.09
2023-04-26T20:51:51.627Z,102031.03
2023-04-26T20:54:19.565Z,102037.69
2023-04-26T20:56:47.631Z,102044.28
2023-04-26T20:59:15.436Z,102036.63
2023-04-26T21:01:43.641Z,102036.06
2023-04-26T21:04:13.127Z,102039.94
2023-04-26T21:06:41.103Z,102041.41
2023-04-26T21:09:09.253Z,102010.47
2023-04-26T21:11:37.139Z,102036.09
2023-04-26T21:14:05.456Z,102038.59
2023-04-26T21:16:33.340Z,102027.88
2023-04-26T21:19:01.703Z,102038.47
2023-04-26T21:21:31.125Z,102047.22
2023-04-26T21:23:58.962Z,102047.97
2023-04-26T21:26:26.714Z,102046.31
2023-04-26T21:28:54.591Z,102048.06
2023-04-26T21:31:22.525Z,102046.53
2023-04-26T21:33:50.741Z,102046.81
2023-04-26T21:36:18.874Z,102033.09
2023-04-26T21:38:48.075Z,102044.38
2023-04-26T21:41:15.985Z,102042.84
2023-04-26T21:43:43.808Z,102007.53
2023-04-26T21:46:11.880Z,102039.84
2023-04-26T21:48:42.198Z,102042.81
2023-04-26T21:51:10.367Z,102045.00
2023-04-26T21:53:38.263Z,102041.44
2023-04-26T21:56:08.179Z,102044.25
2023-04-26T21:58:36.059Z,102043.00
2023-04-26T22:01:10.685Z,102050.81
2023-04-26T22:03:39.495Z,102058.94
2023-04-26T22:06:08.491Z,102046.75
2023-04-26T22:08:37.168Z,102054.13
2023-04-26T22:11:05.135Z,102043.94
2023-04-26T22:13:34.331Z,102045.38
2023-04-26T22:16:02.200Z,102019.47
2023-04-26T22:18:30.023Z,102046.75
2023-04-26T22:20:57.816Z,102049.72
2023-04-26T22:23:25.785Z,102018.69
2023-04-26T22:25:53.559Z,102059.63
2023-04-26T22:28:21.511Z,102045.50
2023-04-26T22:30:53.562Z,102051.09
2023-04-26T22:33:21.488Z,102050.22
2023-04-26T22:35:49.553Z,102057.47
2023-04-26T22:38:17.359Z,102061.38
2023-04-26T22:40:45.085Z,102053.72
2023-04-26T22:43:12.827Z,102063.16
2023-04-26T22:45:40.716Z,102060.56
2023-04-26T22:48:10.017Z,102061.59
2023-04-26T22:50:38.000Z,102059.84
2023-04-26T22:53:05.916Z,102058.31
2023-04-26T22:55:33.823Z,102061.84
2023-04-26T22:58:01.700Z,102064.66
2023-04-26T23:00:29.489Z,102063.75
2023-04-26T23:02:57.396Z,102065.78
2023-04-26T23:05:26.851Z,102060.56
2023-04-26T23:07:54.966Z,102067.88
2023-04-26T23:10:23.488Z,102060.72
2023-04-26T23:12:51.356Z,102064.72
2023-04-26T23:15:19.074Z,102065.97
2023-04-26T23:17:46.952Z,102055.59
2023-04-26T23:20:15.775Z,102061.63
2023-04-26T23:22:45.639Z,102073.28
2023-04-26T23:25:13.486Z,102074.31
2023-04-26T23:27:41.515Z,102086.16
2023-04-26T23:30:10.199Z,102082.75
2023-04-26T23:32:38.121Z,102087.63
2023-04-26T23:35:06.718Z,102096.94
2023-04-26T23:37:34.564Z,102090.75
2023-04-26T23:40:06.016Z,102094.41
2023-04-26T23:42:33.794Z,102083.78
2023-04-26T23:45:01.784Z,102097.44
2023-04-26T23:47:30.091Z,102097.84
2023-04-26T23:49:58.066Z,102097.84
2023-04-26T23:52:26.123Z,102103.31
2023-04-26T23:54:53.941Z,102095.56
2023-04-26T23:57:23.081Z,102103.81
2023-04-26T23:59:52.639Z,102107.53
